Pagrindinis puslapis
METAR-TAF:

METAR-TAF

Oro uostai :

Roma, Italija

platuma: 41-57N, ilguma: 012-30E, Aukštis: 18 m

Dabartinis oras

Ataskaita buvo paskelbta 1 valandą ir 2 minutes, ne 16:50 UTC
Vėjas 3 kt nuo kintamojo kryptimis, svyruoja nuo Pietų/Pietvakarių ir Vakarų/Šiaurės Vakarų
Temperatūra 19°C
Drėgmė 64%
Slėgis 1019 hPa
Matomumas 10 km arba daugiau
nėra debesų žemiau 1500 m ir nėra kamuolinių lietaus debesų

METAR: LIRU 171650Z VRB03KT 210V290 CAVOK 19/12 Q1019

Laikas: 19:52 (17:52 UTC)

Prognozė

Ataskaita buvo paskelbta 3 valandos ir 52 minutes, ne 14:00 UTC
Prognozė galioja nuo 17 metu 15 UTC su 17 metu 24 UTC
Vėjas 5 kt nuo kintamojo kryptimis
Matomumas 10 km arba daugiau
Mažai debesys ne aukštis 3000 ft

TAF: LIRU 171400Z 1715/1724 VRB05KT 9999 FEW030

Orai ataskaitas ir orų prognozės (METAR, TAF).

turimą stotys yra geltonos ir raudonos taškus žemėlapyje.

Perkelti pele per norėdami pamatyti stoties vardą.

Tada spustelėkite, norėdami matyti oro stebėjimo ir prognozės.

Norėdami pakeisti žemėlapį: spustelėkite ant žalios mygtukų su juodo kryžiaus žemyn,; žalią mygtuką su brūkšneliu, jei norite nutolinti; arba žalių rodyklių gretimoms žemėlapius.


METAR-TAF: